Harlowton, Montana
Current Conditions -  °F | °C
As of 1:54 AM on Sunday 26 Oct 2014 (Local Time) from KLWT Reporting Station
Few Clouds Few Clouds  
Wind Chill: 50°   Ceiling: Unl
Heat Index: 50°   Visibility: 10mi
Dew Point: 34°   Wind: 9mph
Humidity: 54%   Direction: 270°W
Pressure: 29.65"   Gusts: NA
Location:  46.44°N, 109.83°W
Report Text: KLWT 260754Z AUTO 27008KT 10SM FEW120 10/01 A2965 RMK AO2 SLP013 T01000011
Loading
Personal Weather Stations






























Interactive Weather Map
Tropical Storm Tracking
New forecast layout! Learn more

10-Day Weather Forecast

Advertisements
Track Severe Weather on mobile